createdAt,value
2018-12-04T00:02:03.924Z,23.27
2018-12-04T00:04:32.271Z,23.63
2018-12-04T00:07:00.596Z,21.47
2018-12-04T00:09:28.950Z,24.23
2018-12-04T00:11:57.277Z,21.37
2018-12-04T00:14:25.723Z,20.67
2018-12-04T00:16:54.067Z,21.57
2018-12-04T00:19:22.621Z,37.60
2018-12-04T00:21:50.731Z,32.63
2018-12-04T00:24:19.081Z,38.73
2018-12-04T00:26:47.443Z,20.17
2018-12-04T00:29:15.776Z,17.63
2018-12-04T00:31:44.094Z,17.57
2018-12-04T00:34:12.437Z,17.93
2018-12-04T00:36:40.773Z,24.97
2018-12-04T00:39:09.137Z,35.93
2018-12-04T00:41:37.437Z,22.50
2018-12-04T00:44:05.769Z,25.67
2018-12-04T00:46:34.106Z,24.53
2018-12-04T00:49:02.444Z,25.90
2018-12-04T00:51:30.793Z,19.93
2018-12-04T00:53:59.130Z,17.90
2018-12-04T00:56:27.474Z,25.27
2018-12-04T00:58:55.804Z,17.00
2018-12-04T01:01:24.126Z,18.10
2018-12-04T01:03:52.453Z,23.73
2018-12-04T01:06:20.781Z,22.50
2018-12-04T01:08:49.358Z,17.67
2018-12-04T01:11:17.470Z,20.50
2018-12-04T01:13:45.804Z,21.40
2018-12-04T01:16:14.126Z,20.47
2018-12-04T01:18:42.463Z,20.03
2018-12-04T01:21:11.162Z,26.03
2018-12-04T01:23:39.494Z,25.13
2018-12-04T01:26:07.831Z,26.17
2018-12-04T01:28:36.214Z,24.83
2018-12-04T01:31:04.544Z,25.23
2018-12-04T01:33:32.936Z,23.93
2018-12-04T01:36:01.232Z,27.07
2018-12-04T01:38:29.569Z,23.63
2018-12-04T01:40:57.894Z,28.77
2018-12-04T01:43:26.232Z,20.33
2018-12-04T01:45:54.565Z,18.63
2018-12-04T01:48:22.896Z,23.13
2018-12-04T01:50:51.229Z,20.73
2018-12-04T01:53:19.575Z,21.53
2018-12-04T01:55:47.892Z,23.07
2018-12-04T01:58:16.234Z,22.90
2018-12-04T02:00:44.563Z,22.33
2018-12-04T02:03:12.902Z,23.30
2018-12-04T02:05:41.243Z,19.47
2018-12-04T02:08:09.566Z,20.17
2018-12-04T02:10:38.807Z,21.40
2018-12-04T02:13:07.126Z,23.90
2018-12-04T02:15:35.455Z,22.20
2018-12-04T02:18:03.801Z,19.77
2018-12-04T02:20:32.147Z,23.40
2018-12-04T02:23:00.479Z,22.87
2018-12-04T02:25:28.810Z,18.30
2018-12-04T02:27:57.134Z,18.87
2018-12-04T02:30:25.501Z,23.17
2018-12-04T02:32:53.837Z,22.43
2018-12-04T02:35:22.170Z,16.10
2018-12-04T02:37:50.499Z,19.87
2018-12-04T02:40:18.826Z,19.87
2018-12-04T02:42:47.160Z,19.77
2018-12-04T02:45:15.503Z,20.83
2018-12-04T02:47:43.816Z,18.13
2018-12-04T02:50:12.165Z,23.30
2018-12-04T02:52:40.503Z,28.47
2018-12-04T02:55:08.837Z,27.63
2018-12-04T02:57:37.167Z,22.23
2018-12-04T03:00:05.496Z,21.17
2018-12-04T03:02:33.832Z,22.00
2018-12-04T03:05:02.161Z,22.03
2018-12-04T03:07:30.499Z,20.20
2018-12-04T03:09:58.825Z,23.70
2018-12-04T03:12:27.162Z,20.90
2018-12-04T03:14:55.521Z,24.43
2018-12-04T03:17:23.848Z,22.10
2018-12-04T03:19:52.179Z,24.47
2018-12-04T03:22:20.504Z,20.87
2018-12-04T03:24:48.832Z,21.67
2018-12-04T03:27:17.169Z,19.63
2018-12-04T03:29:45.507Z,23.00
2018-12-04T03:32:13.875Z,22.97
2018-12-04T03:34:42.213Z,22.77
2018-12-04T03:37:10.559Z,29.00
2018-12-04T03:39:38.887Z,22.43
2018-12-04T03:42:07.225Z,23.70
2018-12-04T03:44:35.559Z,23.97
2018-12-04T03:47:03.895Z,21.37
2018-12-04T03:49:32.219Z,21.77
2018-12-04T03:52:00.549Z,21.53
2018-12-04T03:54:28.883Z,22.43
2018-12-04T03:56:57.232Z,21.37
2018-12-04T03:59:25.543Z,19.13
2018-12-04T04:01:53.876Z,20.13
2018-12-04T04:04:22.192Z,25.17
2018-12-04T04:06:50.535Z,22.03
2018-12-04T04:09:18.870Z,21.93
2018-12-04T04:11:47.200Z,18.47
2018-12-04T04:14:15.529Z,20.80
2018-12-04T04:16:43.859Z,19.17
2018-12-04T04:19:12.184Z,22.47
2018-12-04T04:21:40.522Z,24.87
2018-12-04T04:24:08.853Z,19.07
2018-12-04T04:26:37.178Z,22.57
2018-12-04T04:29:05.504Z,20.63
2018-12-04T04:31:33.833Z,22.93
2018-12-04T04:34:02.209Z,23.97
2018-12-04T04:36:30.547Z,25.33
2018-12-04T04:38:58.863Z,20.23
2018-12-04T04:41:27.192Z,22.13
2018-12-04T04:43:55.522Z,19.77
2018-12-04T04:46:23.839Z,24.73
2018-12-04T04:48:52.170Z,20.90
2018-12-04T04:51:20.490Z,26.00
2018-12-04T04:53:48.821Z,21.73
2018-12-04T04:56:17.130Z,27.87
2018-12-04T04:58:46.007Z,33.40
2018-12-04T05:01:14.094Z,16.33
2018-12-04T05:03:42.424Z,18.50
2018-12-04T05:06:10.775Z,45.00
2018-12-04T05:08:39.107Z,23.63
2018-12-04T05:11:07.447Z,55.07
2018-12-04T05:13:35.783Z,22.13
2018-12-04T05:16:04.120Z,23.47
2018-12-04T05:18:32.455Z,46.83
2018-12-04T05:21:00.869Z,20.30
2018-12-04T05:23:29.200Z,20.53
2018-12-04T05:25:57.529Z,21.53
2018-12-04T05:28:25.862Z,22.77
2018-12-04T05:30:54.178Z,21.30
2018-12-04T05:33:22.503Z,23.97
2018-12-04T05:35:50.858Z,21.33
2018-12-04T05:38:19.192Z,20.40
2018-12-04T05:40:47.542Z,23.23
2018-12-04T05:43:15.873Z,21.30
2018-12-04T05:45:44.216Z,26.30
2018-12-04T05:48:12.565Z,24.33
2018-12-04T05:50:40.888Z,19.30
2018-12-04T05:53:21.024Z,20.90
2018-12-04T05:55:49.362Z,23.57
2018-12-04T05:58:17.704Z,25.67
2018-12-04T06:00:46.019Z,33.23
2018-12-04T06:03:14.336Z,24.60
2018-12-04T06:05:42.678Z,19.53
2018-12-04T06:08:11.001Z,21.37
2018-12-04T06:10:39.349Z,19.50
2018-12-04T06:13:07.692Z,17.97
2018-12-04T06:15:36.026Z,22.03
2018-12-04T06:18:04.376Z,19.67
2018-12-04T06:20:33.634Z,29.90
2018-12-04T06:23:01.996Z,20.07
2018-12-04T06:25:30.365Z,34.33
2018-12-04T06:27:58.981Z,17.73
2018-12-04T06:30:27.319Z,20.87
2018-12-04T06:32:55.650Z,24.63
2018-12-04T06:35:23.974Z,24.33
2018-12-04T06:37:52.321Z,24.30
2018-12-04T06:40:20.659Z,20.47
2018-12-04T06:42:48.988Z,26.60
2018-12-04T06:45:17.306Z,18.77
2018-12-04T06:47:45.637Z,20.37
2018-12-04T06:50:13.972Z,54.73
2018-12-04T06:52:42.311Z,19.67
2018-12-04T06:55:10.649Z,17.17
2018-12-04T06:57:38.999Z,17.53
2018-12-04T07:00:07.336Z,18.00
2018-12-04T07:02:35.668Z,16.10
2018-12-04T07:05:04.028Z,17.73
2018-12-04T07:07:32.362Z,20.70
2018-12-04T07:10:00.717Z,24.07
2018-12-04T07:12:29.041Z,18.43
2018-12-04T07:14:57.814Z,20.53
2018-12-04T07:17:26.161Z,20.93
2018-12-04T07:19:54.501Z,18.33
2018-12-04T07:22:22.887Z,34.63
2018-12-04T07:24:51.636Z,19.37
2018-12-04T07:27:19.974Z,24.13
2018-12-04T07:29:48.309Z,11.53
2018-12-04T07:32:17.167Z,12.10
2018-12-04T07:34:45.291Z,8.53
2018-12-04T07:37:13.612Z,15.13
2018-12-04T07:39:41.969Z,9.23
2018-12-04T07:42:10.313Z,8.47
2018-12-04T07:44:38.638Z,12.27
2018-12-04T07:47:06.980Z,14.70
2018-12-04T07:49:35.308Z,24.03
2018-12-04T07:52:03.640Z,10.50
2018-12-04T07:54:31.988Z,12.53
2018-12-04T07:57:00.295Z,7.03
2018-12-04T07:59:28.620Z,4.10
2018-12-04T08:01:56.936Z,5.70
2018-12-04T08:04:25.275Z,10.13
2018-12-04T08:06:53.592Z,7.00
2018-12-04T08:09:21.914Z,6.40
2018-12-04T08:11:50.276Z,6.30
2018-12-04T08:14:18.581Z,4.60
2018-12-04T08:16:46.898Z,4.20
2018-12-04T08:19:15.209Z,7.97
2018-12-04T08:21:43.533Z,7.53
2018-12-04T08:24:11.847Z,3.63
2018-12-04T08:26:40.160Z,3.70
2018-12-04T08:29:08.499Z,5.17
2018-12-04T08:31:36.847Z,13.53
2018-12-04T08:34:05.167Z,10.70
2018-12-04T08:36:33.485Z,7.40
2018-12-04T08:39:01.807Z,4.83
2018-12-04T08:41:30.306Z,6.20
2018-12-04T08:43:58.633Z,5.97
2018-12-04T08:46:27.543Z,11.57
2018-12-04T08:48:55.878Z,10.73
2018-12-04T08:51:24.195Z,5.93
2018-12-04T08:53:52.510Z,5.30
2018-12-04T08:56:20.821Z,6.93
2018-12-04T08:58:49.177Z,3.13
2018-12-04T09:01:17.492Z,6.40
2018-12-04T09:03:45.818Z,5.10
2018-12-04T09:06:14.139Z,7.37
2018-12-04T09:08:42.479Z,3.53
2018-12-04T09:11:10.780Z,4.47
2018-12-04T09:13:39.108Z,5.33
2018-12-04T09:16:07.433Z,8.47
2018-12-04T09:18:35.745Z,6.10
2018-12-04T09:21:04.114Z,4.77
2018-12-04T09:23:32.426Z,6.40
2018-12-04T09:26:00.733Z,5.77
2018-12-04T09:28:29.041Z,5.93
2018-12-04T09:30:57.366Z,4.20
2018-12-04T09:33:25.686Z,4.90
2018-12-04T09:35:54.012Z,5.57
2018-12-04T09:38:22.339Z,6.83
2018-12-04T09:40:50.662Z,6.57
2018-12-04T09:43:19.095Z,10.80
2018-12-04T09:45:47.411Z,7.53
2018-12-04T09:48:15.737Z,6.77
2018-12-04T09:50:44.064Z,5.93
2018-12-04T09:53:12.390Z,6.57
2018-12-04T09:55:40.705Z,7.73
2018-12-04T09:58:09.038Z,8.10
2018-12-04T10:00:37.360Z,11.33
2018-12-04T10:03:05.686Z,10.03
2018-12-04T10:05:34.004Z,8.97
2018-12-04T10:08:02.329Z,15.27
2018-12-04T10:10:30.651Z,9.27
2018-12-04T10:12:58.970Z,5.93
2018-12-04T10:15:27.308Z,6.90
2018-12-04T10:17:55.637Z,6.80
2018-12-04T10:20:23.957Z,6.23
2018-12-04T10:22:52.515Z,11.87
2018-12-04T10:25:20.621Z,9.90
2018-12-04T10:27:48.953Z,5.87
2018-12-04T10:30:17.299Z,10.87
2018-12-04T10:32:45.878Z,10.37
2018-12-04T10:35:13.980Z,9.63
2018-12-04T10:37:42.304Z,9.67
2018-12-04T10:40:10.640Z,9.50
2018-12-04T10:42:38.990Z,7.83
2018-12-04T10:45:07.349Z,13.53
2018-12-04T10:47:35.676Z,13.47
2018-12-04T10:50:04.009Z,11.00
2018-12-04T10:52:32.356Z,12.83
2018-12-04T10:55:00.664Z,15.37
2018-12-04T10:57:29.236Z,18.53
2018-12-04T10:59:57.355Z,11.70
2018-12-04T11:02:25.688Z,12.87
2018-12-04T11:04:54.023Z,11.30
2018-12-04T11:07:22.346Z,16.20
2018-12-04T11:09:50.690Z,10.33
2018-12-04T11:12:19.341Z,10.60
2018-12-04T11:14:47.659Z,10.30
2018-12-04T11:17:15.996Z,10.20
2018-12-04T11:19:44.317Z,15.67
2018-12-04T11:22:12.869Z,12.27
2018-12-04T11:24:41.204Z,13.27
2018-12-04T11:27:09.544Z,15.43
2018-12-04T11:29:37.897Z,9.83
2018-12-04T11:32:06.223Z,14.10
2018-12-04T11:34:34.574Z,12.53
2018-12-04T11:37:02.906Z,12.40
2018-12-04T11:39:31.230Z,11.70
2018-12-04T11:41:59.546Z,21.63
2018-12-04T11:44:27.876Z,15.10
2018-12-04T11:46:56.286Z,16.57
2018-12-04T11:49:24.645Z,15.13
2018-12-04T11:51:52.959Z,14.80
2018-12-04T11:54:21.300Z,11.43
2018-12-04T11:56:50.975Z,16.90
2018-12-04T11:59:17.960Z,24.87
2018-12-04T12:01:46.282Z,17.33
2018-12-04T12:04:14.630Z,10.50
2018-12-04T12:06:42.955Z,18.57
2018-12-04T12:09:11.386Z,22.93
2018-12-04T12:11:39.721Z,16.83
2018-12-04T12:14:08.044Z,16.27
2018-12-04T12:16:36.382Z,23.70
2018-12-04T12:19:04.716Z,21.47
2018-12-04T12:21:33.056Z,16.70
2018-12-04T12:24:01.375Z,11.13
2018-12-04T12:26:29.708Z,14.17
2018-12-04T12:28:58.052Z,14.73
2018-12-04T12:31:26.386Z,13.03
2018-12-04T12:33:54.704Z,11.07
2018-12-04T12:36:23.366Z,12.37
2018-12-04T12:38:51.689Z,16.77
2018-12-04T12:41:20.021Z,11.23
2018-12-04T12:43:48.344Z,9.47
2018-12-04T12:46:16.680Z,12.77
2018-12-04T12:48:45.597Z,22.27
2018-12-04T12:51:13.927Z,13.80
2018-12-04T12:53:42.259Z,16.63
2018-12-04T12:56:11.507Z,15.23
2018-12-04T12:58:39.834Z,10.80
2018-12-04T13:01:08.163Z,34.27
2018-12-04T13:03:36.480Z,17.37
2018-12-04T13:06:04.810Z,19.90
2018-12-04T13:08:33.130Z,18.17
2018-12-04T13:11:01.451Z,26.63
2018-12-04T13:13:29.811Z,23.83
2018-12-04T13:15:58.170Z,31.87
2018-12-04T13:18:26.502Z,15.20
2018-12-04T13:20:54.867Z,20.97
2018-12-04T13:23:23.197Z,13.57
2018-12-04T13:25:51.527Z,16.40
2018-12-04T13:28:19.852Z,13.87
2018-12-04T13:30:48.236Z,18.40
2018-12-04T13:33:16.567Z,23.87
2018-12-04T13:35:44.906Z,23.63
2018-12-04T13:38:13.256Z,30.53
2018-12-04T13:40:43.286Z,19.23
2018-12-04T13:43:12.857Z,17.20
2018-12-04T13:45:42.132Z,8.07
2018-12-04T13:48:10.616Z,12.90
2018-12-04T13:50:39.019Z,19.80
2018-12-04T13:53:07.327Z,18.80
2018-12-04T13:55:35.881Z,20.83
2018-12-04T13:58:03.969Z,19.10
2018-12-04T14:00:32.317Z,40.10
2018-12-04T14:03:00.687Z,33.70
2018-12-04T14:05:29.038Z,30.23
2018-12-04T14:07:57.498Z,30.30
2018-12-04T14:10:26.344Z,19.67
2018-12-04T14:12:54.728Z,10.23
2018-12-04T14:15:22.877Z,26.93
2018-12-04T14:17:51.264Z,20.17
2018-12-04T14:20:19.584Z,27.43
2018-12-04T14:22:47.924Z,17.50
2018-12-04T14:25:16.264Z,17.80
2018-12-04T14:27:48.951Z,21.37
2018-12-04T14:30:12.986Z,9.80
2018-12-04T14:32:41.325Z,22.77
2018-12-04T14:35:09.770Z,17.30
2018-12-04T14:37:38.358Z,18.07
2018-12-04T14:40:06.511Z,12.93
2018-12-04T14:42:34.808Z,15.83
2018-12-04T14:45:03.237Z,17.03
2018-12-04T14:47:31.548Z,26.20
2018-12-04T14:49:59.887Z,16.03
2018-12-04T14:52:28.294Z,18.33
2018-12-04T14:54:56.614Z,20.33
2018-12-04T14:57:24.963Z,43.87
2018-12-04T14:59:53.353Z,25.63
2018-12-04T15:02:21.718Z,17.53
2018-12-04T15:04:50.044Z,19.17
2018-12-04T15:07:18.406Z,14.17
2018-12-04T15:09:46.714Z,10.97
2018-12-04T15:12:15.046Z,20.00
2018-12-04T15:14:43.413Z,13.00
2018-12-04T15:17:11.790Z,11.97
2018-12-04T15:19:40.094Z,31.87
2018-12-04T15:22:08.473Z,23.00
2018-12-04T15:24:36.787Z,13.43
2018-12-04T15:27:05.148Z,19.80
2018-12-04T15:29:34.126Z,17.30
2018-12-04T15:32:02.481Z,11.00
2018-12-04T15:34:30.796Z,9.80
2018-12-04T15:36:59.412Z,16.43
2018-12-04T15:39:27.528Z,21.60
2018-12-04T15:41:56.590Z,17.30
2018-12-04T15:44:24.905Z,22.87
2018-12-04T15:46:53.254Z,19.17
2018-12-04T15:49:21.564Z,12.00
2018-12-04T15:51:49.902Z,18.60
2018-12-04T15:54:18.661Z,20.47
2018-12-04T15:56:46.661Z,15.93
2018-12-04T15:59:15.010Z,12.43
2018-12-04T16:01:43.354Z,25.33
2018-12-04T16:04:11.682Z,15.93
2018-12-04T16:06:40.095Z,14.03
2018-12-04T16:09:08.453Z,14.27
2018-12-04T16:11:37.102Z,26.20
2018-12-04T16:14:06.605Z,10.80
2018-12-04T16:16:33.911Z,17.87
2018-12-04T16:19:02.822Z,9.83
2018-12-04T16:21:31.043Z,14.73
2018-12-04T16:23:59.391Z,23.33
2018-12-04T16:26:29.695Z,10.33
2018-12-04T16:28:58.036Z,16.00
2018-12-04T16:31:26.916Z,10.63
2018-12-04T16:33:55.313Z,27.93
2018-12-04T16:36:23.789Z,23.97
2018-12-04T16:38:52.299Z,16.83
2018-12-04T16:41:20.650Z,14.23
2018-12-04T16:43:49.029Z,22.40
2018-12-04T16:46:18.108Z,16.80
2018-12-04T16:48:46.511Z,17.27
2018-12-04T16:51:15.682Z,37.80
2018-12-04T16:53:44.374Z,57.70
2018-12-04T16:56:12.822Z,32.87
2018-12-04T16:58:41.234Z,37.50
2018-12-04T17:01:09.880Z,40.23
2018-12-04T17:03:38.712Z,34.70
2018-12-04T17:06:07.214Z,22.23
2018-12-04T17:08:35.642Z,20.70
2018-12-04T17:11:04.399Z,21.57
2018-12-04T17:13:32.841Z,22.37
2018-12-04T17:16:24.445Z,20.43
2018-12-04T17:18:47.676Z,30.93
2018-12-04T17:21:16.998Z,40.17
2018-12-04T17:23:56.211Z,25.43
2018-12-04T17:26:17.721Z,24.53
2018-12-04T17:28:46.173Z,17.23
2018-12-04T17:31:26.095Z,21.33
2018-12-04T17:33:55.055Z,19.17
2018-12-04T17:36:22.888Z,22.00
2018-12-04T17:38:51.631Z,22.50
2018-12-04T17:41:20.056Z,18.73
2018-12-04T17:43:48.431Z,20.10
2018-12-04T17:46:16.738Z,18.47
2018-12-04T17:51:33.422Z,19.33
2018-12-04T17:54:01.735Z,11.50
2018-12-04T17:56:30.990Z,12.47
2018-12-04T17:58:59.326Z,20.13
2018-12-04T18:01:27.898Z,14.17
2018-12-04T18:03:56.253Z,20.70
2018-12-04T18:06:24.600Z,30.73
2018-12-04T18:08:53.249Z,23.00
2018-12-04T18:11:21.979Z,25.33
2018-12-04T18:13:50.360Z,30.63
2018-12-04T18:16:18.765Z,13.90
2018-12-04T18:18:47.124Z,15.90
2018-12-04T18:21:15.477Z,11.93
2018-12-04T18:23:44.071Z,13.77
2018-12-04T18:26:12.423Z,20.60
2018-12-04T18:28:40.851Z,24.03
2018-12-04T18:31:09.196Z,18.57
2018-12-04T18:33:37.534Z,16.93
2018-12-04T18:36:05.878Z,14.93
2018-12-04T18:38:34.457Z,14.30
2018-12-04T18:41:02.914Z,15.93
2018-12-04T18:43:31.236Z,15.23
2018-12-04T18:45:59.882Z,16.00
2018-12-04T18:48:28.229Z,14.60
2018-12-04T18:50:56.574Z,13.70
2018-12-04T18:53:25.152Z,20.10
2018-12-04T18:55:53.521Z,13.53
2018-12-04T18:58:22.098Z,7.07
2018-12-04T19:00:50.220Z,12.47
2018-12-04T19:03:18.586Z,23.70
2018-12-04T19:05:46.937Z,70.27
2018-12-04T19:08:15.296Z,22.03
2018-12-04T19:10:43.642Z,38.03
2018-12-04T19:13:11.987Z,32.60
2018-12-04T19:15:40.330Z,38.17
2018-12-04T19:18:08.714Z,27.70
2018-12-04T19:26:07.021Z,21.77
2018-12-04T19:28:35.307Z,15.03
2018-12-04T19:31:03.698Z,29.17
2018-12-04T19:33:32.795Z,27.63
2018-12-04T19:36:01.123Z,11.70
2018-12-04T19:38:29.509Z,15.63
2018-12-04T19:40:57.808Z,11.07
2018-12-04T19:43:26.440Z,12.03
2018-12-04T19:45:54.552Z,8.80
2018-12-04T19:48:22.870Z,8.43
2018-12-04T19:50:51.233Z,11.30
2018-12-04T19:53:19.667Z,25.60
2018-12-04T19:55:48.076Z,12.73
2018-12-04T19:58:16.651Z,24.37
2018-12-04T20:00:45.088Z,20.20
2018-12-04T20:03:13.456Z,21.13
2018-12-04T20:05:41.884Z,12.23
2018-12-04T20:08:10.664Z,29.47
2018-12-04T20:10:39.252Z,21.87
2018-12-04T20:13:07.778Z,20.43
2018-12-04T20:15:36.549Z,12.47
2018-12-04T20:18:05.316Z,18.07
2018-12-04T20:20:34.530Z,15.57
2018-12-04T20:23:02.909Z,19.63
2018-12-04T20:25:31.470Z,16.40
2018-12-04T20:28:00.002Z,18.03
2018-12-04T20:30:28.594Z,14.13
2018-12-04T20:32:59.859Z,16.17
2018-12-04T20:35:25.390Z,14.57
2018-12-04T20:37:53.811Z,13.23
2018-12-04T20:40:22.386Z,13.50
2018-12-04T20:42:51.043Z,14.57
2018-12-04T20:45:19.481Z,9.47
2018-12-04T20:47:47.736Z,14.57
2018-12-04T20:50:16.161Z,12.00
2018-12-04T20:52:44.989Z,12.57
2018-12-04T20:55:13.136Z,16.67
2018-12-04T20:57:41.482Z,18.97
2018-12-04T21:00:09.843Z,22.53
2018-12-04T21:02:38.324Z,12.70
2018-12-04T21:05:07.324Z,12.97
2018-12-04T21:07:35.733Z,23.40
2018-12-04T21:10:04.176Z,11.53
2018-12-04T21:12:32.613Z,21.10
2018-12-04T21:15:00.948Z,13.63
2018-12-04T21:17:29.534Z,13.87
2018-12-04T21:19:58.114Z,12.30
2018-12-04T21:22:26.449Z,8.87
2018-12-04T21:24:54.987Z,13.10
2018-12-04T21:27:28.980Z,9.77
2018-12-04T21:30:02.853Z,10.20
2018-12-04T21:32:36.781Z,10.57
2018-12-04T21:35:10.800Z,7.77
2018-12-04T21:37:44.800Z,7.73
2018-12-04T21:40:19.824Z,7.37
2018-12-04T21:42:52.744Z,8.80
2018-12-04T21:45:26.548Z,11.77
2018-12-04T21:47:54.903Z,8.43
2018-12-04T21:50:23.360Z,10.43
2018-12-04T21:52:52.323Z,13.33
2018-12-04T21:55:20.672Z,8.80
2018-12-04T21:57:49.118Z,9.53
2018-12-04T22:00:17.769Z,9.10
2018-12-04T22:02:46.122Z,10.57
2018-12-04T22:05:14.484Z,11.27
2018-12-04T22:07:42.897Z,4.90
2018-12-04T22:10:11.236Z,8.97
2018-12-04T22:12:39.557Z,6.77
2018-12-04T22:15:07.884Z,10.57
2018-12-04T22:17:36.201Z,10.87
2018-12-04T22:20:05.065Z,13.17
2018-12-04T22:22:33.498Z,12.50
2018-12-04T22:25:01.796Z,8.47
2018-12-04T22:27:30.195Z,10.03
2018-12-04T22:29:58.523Z,6.07
2018-12-04T22:32:26.878Z,11.13
2018-12-04T22:34:55.206Z,10.13
2018-12-04T22:37:23.550Z,5.27
2018-12-04T22:39:51.878Z,7.90
2018-12-04T22:42:20.211Z,11.67
2018-12-04T22:44:48.533Z,10.20
2018-12-04T22:47:16.864Z,12.40
2018-12-04T22:49:45.218Z,8.83
2018-12-04T22:52:13.547Z,8.97
2018-12-04T22:54:41.883Z,7.83
2018-12-04T22:57:10.412Z,7.00
2018-12-04T22:59:38.743Z,6.50
2018-12-04T23:02:07.087Z,10.07
2018-12-04T23:04:35.501Z,10.20
2018-12-04T23:07:03.792Z,7.83
2018-12-04T23:09:32.298Z,8.90
2018-12-04T23:12:00.420Z,13.03
2018-12-04T23:14:28.750Z,7.00
2018-12-04T23:16:57.072Z,5.83
2018-12-04T23:19:25.408Z,10.47
2018-12-04T23:21:54.091Z,9.07
2018-12-04T23:24:22.194Z,10.00
2018-12-04T23:26:50.655Z,6.40
2018-12-04T23:29:18.972Z,7.50
2018-12-04T23:31:47.304Z,6.00
2018-12-04T23:34:15.633Z,8.77
2018-12-04T23:36:43.964Z,9.50
2018-12-04T23:39:12.549Z,5.03
2018-12-04T23:41:40.889Z,6.70
2018-12-04T23:44:09.209Z,9.63
2018-12-04T23:46:37.535Z,11.37
2018-12-04T23:49:05.856Z,10.03
2018-12-04T23:51:34.200Z,7.20
2018-12-04T23:54:02.644Z,8.37
2018-12-04T23:56:30.991Z,5.33
2018-12-04T23:58:59.330Z,7.63
